sensor_id;sensor_type;location;lat;lon;timestamp;P1;durP1;ratioP1;P2;durP2;ratioP2
45388;SDS011;31127;52.078;4.370;2023-07-31T00:01:08;42.03;;;11.40;;
45388;SDS011;31127;52.078;4.370;2023-07-31T00:06:24;44.50;;;11.90;;
45388;SDS011;31127;52.078;4.370;2023-07-31T00:11:19;35.27;;;10.73;;
45388;SDS011;31127;52.078;4.370;2023-07-31T00:16:14;58.37;;;12.70;;
45388;SDS011;31127;52.078;4.370;2023-07-31T00:21:10;46.10;;;11.88;;
45388;SDS011;31127;52.078;4.370;2023-07-31T00:26:05;54.05;;;11.00;;
45388;SDS011;31127;52.078;4.370;2023-07-31T00:31:01;45.45;;;10.73;;
45388;SDS011;31127;52.078;4.370;2023-07-31T00:35:58;34.47;;;10.40;;
45388;SDS011;31127;52.078;4.370;2023-07-31T00:40:55;51.47;;;11.18;;
45388;SDS011;31127;52.078;4.370;2023-07-31T00:46:11;40.80;;;11.52;;
45388;SDS011;31127;52.078;4.370;2023-07-31T00:51:07;42.80;;;10.30;;
45388;SDS011;31127;52.078;4.370;2023-07-31T00:56:03;31.63;;;10.20;;
45388;SDS011;31127;52.078;4.370;2023-07-31T01:00:59;42.28;;;11.02;;
45388;SDS011;31127;52.078;4.370;2023-07-31T01:06:22;41.13;;;11.60;;
45388;SDS011;31127;52.078;4.370;2023-07-31T01:11:43;39.58;;;10.55;;
45388;SDS011;31127;52.078;4.370;2023-07-31T01:16:41;40.25;;;11.73;;
45388;SDS011;31127;52.078;4.370;2023-07-31T01:26:57;37.45;;;11.68;;
45388;SDS011;31127;52.078;4.370;2023-07-31T01:31:55;40.13;;;10.90;;
45388;SDS011;31127;52.078;4.370;2023-07-31T01:36:51;35.95;;;11.02;;
45388;SDS011;31127;52.078;4.370;2023-07-31T01:41:47;36.80;;;10.13;;
45388;SDS011;31127;52.078;4.370;2023-07-31T01:46:42;32.30;;;9.55;;
45388;SDS011;31127;52.078;4.370;2023-07-31T01:51:58;35.67;;;9.57;;
45388;SDS011;31127;52.078;4.370;2023-07-31T01:56:53;33.85;;;8.95;;
45388;SDS011;31127;52.078;4.370;2023-07-31T02:01:49;28.05;;;8.95;;
45388;SDS011;31127;52.078;4.370;2023-07-31T02:06:44;29.95;;;9.32;;
45388;SDS011;31127;52.078;4.370;2023-07-31T02:12:00;25.15;;;9.75;;
45388;SDS011;31127;52.078;4.370;2023-07-31T02:16:55;34.47;;;10.75;;
45388;SDS011;31127;52.078;4.370;2023-07-31T02:21:51;40.08;;;10.25;;
45388;SDS011;31127;52.078;4.370;2023-07-31T02:26:46;36.30;;;10.18;;
45388;SDS011;31127;52.078;4.370;2023-07-31T02:31:42;27.35;;;9.52;;
45388;SDS011;31127;52.078;4.370;2023-07-31T02:36:57;32.63;;;10.55;;
45388;SDS011;31127;52.078;4.370;2023-07-31T02:41:53;28.42;;;8.90;;
45388;SDS011;31127;52.078;4.370;2023-07-31T02:46:48;25.63;;;8.20;;
45388;SDS011;31127;52.078;4.370;2023-07-31T02:51:44;24.67;;;8.95;;
45388;SDS011;31127;52.078;4.370;2023-07-31T02:56:39;32.92;;;8.02;;
45388;SDS011;31127;52.078;4.370;2023-07-31T03:01:35;30.40;;;8.33;;
45388;SDS011;31127;52.078;4.370;2023-07-31T03:06:30;41.15;;;10.52;;
45388;SDS011;31127;52.078;4.370;2023-07-31T03:11:26;31.23;;;8.45;;
45388;SDS011;31127;52.078;4.370;2023-07-31T03:16:21;27.40;;;9.23;;
45388;SDS011;31127;52.078;4.370;2023-07-31T03:21:17;34.97;;;10.48;;
45388;SDS011;31127;52.078;4.370;2023-07-31T03:26:12;26.07;;;8.10;;
45388;SDS011;31127;52.078;4.370;2023-07-31T03:31:08;28.17;;;8.38;;
45388;SDS011;31127;52.078;4.370;2023-07-31T03:36:04;33.17;;;8.98;;
45388;SDS011;31127;52.078;4.370;2023-07-31T03:41:00;33.92;;;8.52;;
45388;SDS011;31127;52.078;4.370;2023-07-31T03:46:15;31.17;;;8.70;;
45388;SDS011;31127;52.078;4.370;2023-07-31T03:51:11;22.45;;;6.82;;
45388;SDS011;31127;52.078;4.370;2023-07-31T03:56:06;17.13;;;5.15;;
45388;SDS011;31127;52.078;4.370;2023-07-31T04:01:02;18.60;;;6.05;;
45388;SDS011;31127;52.078;4.370;2023-07-31T04:06:17;15.65;;;5.57;;
45388;SDS011;31127;52.078;4.370;2023-07-31T04:11:13;11.55;;;3.00;;
45388;SDS011;31127;52.078;4.370;2023-07-31T04:16:09;12.18;;;4.05;;
45388;SDS011;31127;52.078;4.370;2023-07-31T04:21:04;8.00;;;2.85;;
45388;SDS011;31127;52.078;4.370;2023-07-31T04:26:20;7.97;;;2.55;;
45388;SDS011;31127;52.078;4.370;2023-07-31T04:31:15;12.55;;;3.63;;
45388;SDS011;31127;52.078;4.370;2023-07-31T04:36:11;8.05;;;1.80;;
45388;SDS011;31127;52.078;4.370;2023-07-31T04:41:07;11.95;;;2.17;;
45388;SDS011;31127;52.078;4.370;2023-07-31T04:46:02;6.45;;;2.42;;
45388;SDS011;31127;52.078;4.370;2023-07-31T04:50:58;7.50;;;1.38;;
45388;SDS011;31127;52.078;4.370;2023-07-31T04:55:53;3.78;;;1.50;;
45388;SDS011;31127;52.078;4.370;2023-07-31T05:00:48;5.07;;;1.42;;
45388;SDS011;31127;52.078;4.370;2023-07-31T05:05:44;7.18;;;1.90;;
45388;SDS011;31127;52.078;4.370;2023-07-31T05:10:39;3.47;;;1.90;;
45388;SDS011;31127;52.078;4.370;2023-07-31T05:15:35;3.78;;;2.10;;
45388;SDS011;31127;52.078;4.370;2023-07-31T05:20:51;4.20;;;2.30;;
45388;SDS011;31127;52.078;4.370;2023-07-31T05:26:07;5.15;;;2.22;;
45388;SDS011;31127;52.078;4.370;2023-07-31T05:31:03;4.38;;;2.08;;
45388;SDS011;31127;52.078;4.370;2023-07-31T05:35:59;4.75;;;2.22;;
45388;SDS011;31127;52.078;4.370;2023-07-31T05:40:54;7.15;;;2.22;;
45388;SDS011;31127;52.078;4.370;2023-07-31T05:45:50;4.47;;;2.00;;
45388;SDS011;31127;52.078;4.370;2023-07-31T05:50:46;4.32;;;2.40;;
45388;SDS011;31127;52.078;4.370;2023-07-31T05:55:41;5.40;;;2.10;;
45388;SDS011;31127;52.078;4.370;2023-07-31T06:00:57;7.70;;;2.00;;
45388;SDS011;31127;52.078;4.370;2023-07-31T06:05:52;6.95;;;2.10;;
45388;SDS011;31127;52.078;4.370;2023-07-31T06:10:48;6.30;;;2.43;;
45388;SDS011;31127;52.078;4.370;2023-07-31T06:15:43;8.02;;;2.03;;
45388;SDS011;31127;52.078;4.370;2023-07-31T06:20:59;9.60;;;2.25;;
45388;SDS011;31127;52.078;4.370;2023-07-31T06:26:14;7.85;;;2.42;;
45388;SDS011;31127;52.078;4.370;2023-07-31T06:31:11;13.52;;;2.78;;
45388;SDS011;31127;52.078;4.370;2023-07-31T06:36:26;8.68;;;3.05;;
45388;SDS011;31127;52.078;4.370;2023-07-31T06:41:22;12.45;;;3.13;;
45388;SDS011;31127;52.078;4.370;2023-07-31T06:46:18;18.52;;;4.35;;
45388;SDS011;31127;52.078;4.370;2023-07-31T06:51:14;14.32;;;4.38;;
45388;SDS011;31127;52.078;4.370;2023-07-31T06:56:09;18.95;;;4.72;;
45388;SDS011;31127;52.078;4.370;2023-07-31T07:01:05;17.90;;;4.65;;
45388;SDS011;31127;52.078;4.370;2023-07-31T07:06:00;20.20;;;5.68;;
45388;SDS011;31127;52.078;4.370;2023-07-31T07:10:56;17.05;;;3.53;;
45388;SDS011;31127;52.078;4.370;2023-07-31T07:15:51;14.63;;;4.13;;
45388;SDS011;31127;52.078;4.370;2023-07-31T07:20:49;15.40;;;4.18;;
45388;SDS011;31127;52.078;4.370;2023-07-31T07:26:04;17.20;;;4.40;;
45388;SDS011;31127;52.078;4.370;2023-07-31T07:31:20;19.40;;;4.13;;
45388;SDS011;31127;52.078;4.370;2023-07-31T07:36:19;12.82;;;3.53;;
45388;SDS011;31127;52.078;4.370;2023-07-31T07:41:14;17.38;;;3.97;;
45388;SDS011;31127;52.078;4.370;2023-07-31T07:46:10;11.55;;;4.05;;
45388;SDS011;31127;52.078;4.370;2023-07-31T07:51:25;18.90;;;5.45;;
45388;SDS011;31127;52.078;4.370;2023-07-31T07:56:21;17.83;;;5.55;;
45388;SDS011;31127;52.078;4.370;2023-07-31T08:01:16;13.98;;;4.05;;
45388;SDS011;31127;52.078;4.370;2023-07-31T08:06:32;18.40;;;4.47;;
45388;SDS011;31127;52.078;4.370;2023-07-31T08:11:28;20.60;;;4.38;;
45388;SDS011;31127;52.078;4.370;2023-07-31T08:16:23;22.98;;;4.40;;
45388;SDS011;31127;52.078;4.370;2023-07-31T08:21:19;20.93;;;4.37;;
45388;SDS011;31127;52.078;4.370;2023-07-31T08:26:15;26.73;;;5.10;;
45388;SDS011;31127;52.078;4.370;2023-07-31T08:31:11;18.02;;;4.47;;
45388;SDS011;31127;52.078;4.370;2023-07-31T08:36:07;19.48;;;4.40;;
45388;SDS011;31127;52.078;4.370;2023-07-31T08:41:03;21.52;;;4.53;;
45388;SDS011;31127;52.078;4.370;2023-07-31T08:45:58;21.67;;;4.85;;
45388;SDS011;31127;52.078;4.370;2023-07-31T08:50:54;11.95;;;3.38;;
45388;SDS011;31127;52.078;4.370;2023-07-31T08:55:50;14.82;;;3.83;;
45388;SDS011;31127;52.078;4.370;2023-07-31T09:00:47;15.82;;;3.58;;
45388;SDS011;31127;52.078;4.370;2023-07-31T09:05:44;15.20;;;3.97;;
45388;SDS011;31127;52.078;4.370;2023-07-31T09:11:00;25.60;;;5.07;;
45388;SDS011;31127;52.078;4.370;2023-07-31T09:16:15;13.32;;;4.00;;
45388;SDS011;31127;52.078;4.370;2023-07-31T09:21:11;15.07;;;3.63;;
45388;SDS011;31127;52.078;4.370;2023-07-31T09:26:06;14.70;;;3.53;;
45388;SDS011;31127;52.078;4.370;2023-07-31T09:31:02;14.10;;;3.70;;
45388;SDS011;31127;52.078;4.370;2023-07-31T09:36:17;14.10;;;2.88;;
45388;SDS011;31127;52.078;4.370;2023-07-31T09:41:13;15.18;;;3.45;;
45388;SDS011;31127;52.078;4.370;2023-07-31T09:46:12;13.60;;;3.50;;
45388;SDS011;31127;52.078;4.370;2023-07-31T09:51:08;16.58;;;3.95;;
45388;SDS011;31127;52.078;4.370;2023-07-31T09:56:03;14.00;;;4.70;;
45388;SDS011;31127;52.078;4.370;2023-07-31T10:01:00;16.30;;;3.92;;
45388;SDS011;31127;52.078;4.370;2023-07-31T10:05:56;17.35;;;5.07;;
45388;SDS011;31127;52.078;4.370;2023-07-31T10:11:12;19.70;;;3.38;;
45388;SDS011;31127;52.078;4.370;2023-07-31T10:16:09;14.90;;;3.10;;
45388;SDS011;31127;52.078;4.370;2023-07-31T10:21:05;12.15;;;3.15;;
45388;SDS011;31127;52.078;4.370;2023-07-31T10:26:01;19.10;;;4.32;;
45388;SDS011;31127;52.078;4.370;2023-07-31T10:30:57;14.10;;;4.22;;
45388;SDS011;31127;52.078;4.370;2023-07-31T10:36:11;12.73;;;3.55;;
45388;SDS011;31127;52.078;4.370;2023-07-31T10:41:08;18.88;;;3.90;;
45388;SDS011;31127;52.078;4.370;2023-07-31T10:46:12;11.85;;;3.67;;
45388;SDS011;31127;52.078;4.370;2023-07-31T10:51:09;11.65;;;2.95;;
45388;SDS011;31127;52.078;4.370;2023-07-31T10:56:06;10.77;;;2.92;;
45388;SDS011;31127;52.078;4.370;2023-07-31T11:01:02;12.98;;;3.45;;
45388;SDS011;31127;52.078;4.370;2023-07-31T11:15:58;12.63;;;3.20;;
45388;SDS011;31127;52.078;4.370;2023-07-31T11:20:54;8.77;;;2.40;;
45388;SDS011;31127;52.078;4.370;2023-07-31T11:25:52;8.15;;;3.33;;
45388;SDS011;31127;52.078;4.370;2023-07-31T11:30:48;7.55;;;2.47;;
45388;SDS011;31127;52.078;4.370;2023-07-31T11:35:47;9.00;;;2.85;;
45388;SDS011;31127;52.078;4.370;2023-07-31T11:40:43;9.05;;;2.70;;
45388;SDS011;31127;52.078;4.370;2023-07-31T11:45:59;7.75;;;2.13;;
45388;SDS011;31127;52.078;4.370;2023-07-31T11:50:58;8.05;;;2.45;;
45388;SDS011;31127;52.078;4.370;2023-07-31T11:55:54;9.60;;;2.80;;
45388;SDS011;31127;52.078;4.370;2023-07-31T12:00:50;10.55;;;2.55;;
45388;SDS011;31127;52.078;4.370;2023-07-31T12:05:47;14.98;;;2.55;;
45388;SDS011;31127;52.078;4.370;2023-07-31T12:10:43;9.27;;;2.60;;
45388;SDS011;31127;52.078;4.370;2023-07-31T12:15:41;11.10;;;2.17;;
45388;SDS011;31127;52.078;4.370;2023-07-31T12:20:43;9.55;;;2.05;;
45388;SDS011;31127;52.078;4.370;2023-07-31T12:26:12;13.82;;;3.05;;
45388;SDS011;31127;52.078;4.370;2023-07-31T12:31:28;8.88;;;2.70;;
45388;SDS011;31127;52.078;4.370;2023-07-31T12:36:24;7.88;;;2.13;;
45388;SDS011;31127;52.078;4.370;2023-07-31T12:41:20;9.68;;;2.20;;
45388;SDS011;31127;52.078;4.370;2023-07-31T12:46:16;5.07;;;2.08;;
45388;SDS011;31127;52.078;4.370;2023-07-31T12:51:12;6.75;;;2.58;;
45388;SDS011;31127;52.078;4.370;2023-07-31T12:56:07;5.95;;;1.55;;
45388;SDS011;31127;52.078;4.370;2023-07-31T13:01:03;5.05;;;1.65;;
45388;SDS011;31127;52.078;4.370;2023-07-31T13:05:59;6.28;;;1.17;;
45388;SDS011;31127;52.078;4.370;2023-07-31T13:10:54;4.82;;;1.30;;
45388;SDS011;31127;52.078;4.370;2023-07-31T13:15:50;4.28;;;1.70;;
45388;SDS011;31127;52.078;4.370;2023-07-31T13:20:46;6.45;;;2.20;;
45388;SDS011;31127;52.078;4.370;2023-07-31T13:26:01;7.72;;;2.47;;
45388;SDS011;31127;52.078;4.370;2023-07-31T13:30:57;7.65;;;3.85;;
45388;SDS011;31127;52.078;4.370;2023-07-31T13:36:12;10.38;;;2.95;;
45388;SDS011;31127;52.078;4.370;2023-07-31T13:41:09;6.85;;;1.88;;
45388;SDS011;31127;52.078;4.370;2023-07-31T13:46:04;8.38;;;2.10;;
45388;SDS011;31127;52.078;4.370;2023-07-31T13:51:02;5.30;;;1.90;;
45388;SDS011;31127;52.078;4.370;2023-07-31T13:55:58;3.97;;;1.45;;
45388;SDS011;31127;52.078;4.370;2023-07-31T14:01:13;4.18;;;1.40;;
45388;SDS011;31127;52.078;4.370;2023-07-31T14:06:09;5.22;;;1.80;;
45388;SDS011;31127;52.078;4.370;2023-07-31T14:11:05;7.28;;;4.13;;
45388;SDS011;31127;52.078;4.370;2023-07-31T14:16:01;3.95;;;1.38;;
45388;SDS011;31127;52.078;4.370;2023-07-31T14:20:56;4.00;;;0.80;;
45388;SDS011;31127;52.078;4.370;2023-07-31T14:25:51;1.58;;;0.80;;
45388;SDS011;31127;52.078;4.370;2023-07-31T14:30:47;2.40;;;0.80;;
45388;SDS011;31127;52.078;4.370;2023-07-31T14:35:43;1.52;;;0.70;;
45388;SDS011;31127;52.078;4.370;2023-07-31T14:40:38;2.25;;;0.68;;
45388;SDS011;31127;52.078;4.370;2023-07-31T14:45:34;1.88;;;0.93;;
45388;SDS011;31127;52.078;4.370;2023-07-31T14:50:30;1.98;;;0.60;;
45388;SDS011;31127;52.078;4.370;2023-07-31T14:55:26;0.93;;;0.50;;
45388;SDS011;31127;52.078;4.370;2023-07-31T15:00:22;2.50;;;1.17;;
45388;SDS011;31127;52.078;4.370;2023-07-31T15:05:19;1.15;;;0.50;;
45388;SDS011;31127;52.078;4.370;2023-07-31T15:10:18;2.72;;;1.10;;
45388;SDS011;31127;52.078;4.370;2023-07-31T15:15:14;1.30;;;0.70;;
45388;SDS011;31127;52.078;4.370;2023-07-31T15:20:13;2.15;;;0.85;;
45388;SDS011;31127;52.078;4.370;2023-07-31T15:25:28;1.05;;;0.50;;
45388;SDS011;31127;52.078;4.370;2023-07-31T15:30:24;1.35;;;1.15;;
45388;SDS011;31127;52.078;4.370;2023-07-31T15:35:20;1.33;;;1.00;;
45388;SDS011;31127;52.078;4.370;2023-07-31T15:40:15;2.42;;;1.10;;
45388;SDS011;31127;52.078;4.370;2023-07-31T15:45:11;1.77;;;1.20;;
45388;SDS011;31127;52.078;4.370;2023-07-31T15:50:07;0.95;;;0.73;;
45388;SDS011;31127;52.078;4.370;2023-07-31T15:55:23;3.13;;;1.00;;
45388;SDS011;31127;52.078;4.370;2023-07-31T16:00:38;4.05;;;1.33;;
45388;SDS011;31127;52.078;4.370;2023-07-31T16:05:34;9.05;;;2.10;;
45388;SDS011;31127;52.078;4.370;2023-07-31T16:10:30;8.70;;;1.65;;
45388;SDS011;31127;52.078;4.370;2023-07-31T16:15:26;9.73;;;2.28;;
45388;SDS011;31127;52.078;4.370;2023-07-31T16:20:22;8.70;;;1.77;;
45388;SDS011;31127;52.078;4.370;2023-07-31T16:25:17;14.52;;;2.97;;
45388;SDS011;31127;52.078;4.370;2023-07-31T16:30:12;11.13;;;3.37;;
45388;SDS011;31127;52.078;4.370;2023-07-31T16:35:29;11.65;;;2.50;;
45388;SDS011;31127;52.078;4.370;2023-07-31T16:40:24;10.32;;;3.08;;
45388;SDS011;31127;52.078;4.370;2023-07-31T16:45:19;8.73;;;2.83;;
45388;SDS011;31127;52.078;4.370;2023-07-31T16:50:15;9.57;;;2.63;;
45388;SDS011;31127;52.078;4.370;2023-07-31T16:55:11;14.82;;;3.22;;
45388;SDS011;31127;52.078;4.370;2023-07-31T17:00:07;17.58;;;3.17;;
45388;SDS011;31127;52.078;4.370;2023-07-31T17:05:02;9.52;;;2.97;;
45388;SDS011;31127;52.078;4.370;2023-07-31T17:10:03;9.30;;;2.30;;
45388;SDS011;31127;52.078;4.370;2023-07-31T17:14:59;8.70;;;2.28;;
45388;SDS011;31127;52.078;4.370;2023-07-31T17:19:54;12.02;;;2.95;;
45388;SDS011;31127;52.078;4.370;2023-07-31T17:24:50;12.20;;;2.85;;
45388;SDS011;31127;52.078;4.370;2023-07-31T17:29:46;9.13;;;2.63;;
45388;SDS011;31127;52.078;4.370;2023-07-31T17:34:41;16.15;;;3.47;;
45388;SDS011;31127;52.078;4.370;2023-07-31T17:39:38;17.55;;;3.97;;
45388;SDS011;31127;52.078;4.370;2023-07-31T17:44:34;11.48;;;3.10;;
45388;SDS011;31127;52.078;4.370;2023-07-31T17:49:29;13.05;;;3.08;;
45388;SDS011;31127;52.078;4.370;2023-07-31T17:54:45;12.10;;;3.47;;
45388;SDS011;31127;52.078;4.370;2023-07-31T18:00:01;10.65;;;2.83;;
45388;SDS011;31127;52.078;4.370;2023-07-31T18:05:03;11.75;;;2.58;;
45388;SDS011;31127;52.078;4.370;2023-07-31T18:09:58;8.93;;;3.10;;
45388;SDS011;31127;52.078;4.370;2023-07-31T18:14:58;16.65;;;2.67;;
45388;SDS011;31127;52.078;4.370;2023-07-31T18:20:13;18.80;;;3.58;;
45388;SDS011;31127;52.078;4.370;2023-07-31T18:25:09;17.50;;;4.10;;
45388;SDS011;31127;52.078;4.370;2023-07-31T18:30:05;8.52;;;2.83;;
45388;SDS011;31127;52.078;4.370;2023-07-31T18:35:01;10.00;;;2.58;;
45388;SDS011;31127;52.078;4.370;2023-07-31T18:40:16;6.03;;;2.05;;
45388;SDS011;31127;52.078;4.370;2023-07-31T18:45:12;7.15;;;2.00;;
45388;SDS011;31127;52.078;4.370;2023-07-31T18:50:28;9.70;;;2.05;;
45388;SDS011;31127;52.078;4.370;2023-07-31T18:55:43;3.17;;;1.45;;
45388;SDS011;31127;52.078;4.370;2023-07-31T19:00:39;4.72;;;2.00;;
45388;SDS011;31127;52.078;4.370;2023-07-31T19:05:34;4.72;;;1.40;;
45388;SDS011;31127;52.078;4.370;2023-07-31T19:10:31;6.13;;;2.20;;
45388;SDS011;31127;52.078;4.370;2023-07-31T19:15:26;8.40;;;1.70;;
45388;SDS011;31127;52.078;4.370;2023-07-31T19:20:22;5.38;;;1.90;;
45388;SDS011;31127;52.078;4.370;2023-07-31T19:25:17;7.57;;;2.38;;
45388;SDS011;31127;52.078;4.370;2023-07-31T19:30:13;8.52;;;2.35;;
45388;SDS011;31127;52.078;4.370;2023-07-31T19:35:10;8.13;;;2.30;;
45388;SDS011;31127;52.078;4.370;2023-07-31T19:40:05;10.40;;;2.58;;
45388;SDS011;31127;52.078;4.370;2023-07-31T19:45:05;12.15;;;3.20;;
45388;SDS011;31127;52.078;4.370;2023-07-31T19:50:20;12.65;;;2.70;;
45388;SDS011;31127;52.078;4.370;2023-07-31T19:55:17;19.90;;;8.77;;
45388;SDS011;31127;52.078;4.370;2023-07-31T20:00:29;10.52;;;2.80;;
45388;SDS011;31127;52.078;4.370;2023-07-31T20:05:25;12.18;;;2.80;;
45388;SDS011;31127;52.078;4.370;2023-07-31T20:10:20;8.15;;;2.50;;
45388;SDS011;31127;52.078;4.370;2023-07-31T20:15:20;7.28;;;2.60;;
45388;SDS011;31127;52.078;4.370;2023-07-31T20:20:17;11.93;;;4.88;;
45388;SDS011;31127;52.078;4.370;2023-07-31T20:25:33;13.73;;;2.17;;
45388;SDS011;31127;52.078;4.370;2023-07-31T20:30:29;11.85;;;2.80;;
45388;SDS011;31127;52.078;4.370;2023-07-31T20:35:25;10.03;;;2.67;;
45388;SDS011;31127;52.078;4.370;2023-07-31T20:40:20;10.82;;;2.47;;
45388;SDS011;31127;52.078;4.370;2023-07-31T20:45:16;7.75;;;2.45;;
45388;SDS011;31127;52.078;4.370;2023-07-31T20:50:13;9.18;;;2.33;;
45388;SDS011;31127;52.078;4.370;2023-07-31T20:55:09;7.72;;;2.40;;
45388;SDS011;31127;52.078;4.370;2023-07-31T21:00:04;8.77;;;2.83;;
45388;SDS011;31127;52.078;4.370;2023-07-31T21:05:00;11.23;;;2.33;;
45388;SDS011;31127;52.078;4.370;2023-07-31T21:09:56;7.53;;;2.38;;
45388;SDS011;31127;52.078;4.370;2023-07-31T21:14:51;10.25;;;1.63;;
45388;SDS011;31127;52.078;4.370;2023-07-31T21:19:47;3.70;;;1.67;;
45388;SDS011;31127;52.078;4.370;2023-07-31T21:24:44;4.40;;;1.38;;
45388;SDS011;31127;52.078;4.370;2023-07-31T21:29:39;5.78;;;1.80;;
45388;SDS011;31127;52.078;4.370;2023-07-31T21:34:55;4.05;;;2.15;;
45388;SDS011;31127;52.078;4.370;2023-07-31T21:39:50;4.83;;;2.50;;
45388;SDS011;31127;52.078;4.370;2023-07-31T21:44:46;5.72;;;2.65;;
45388;SDS011;31127;52.078;4.370;2023-07-31T21:49:42;3.47;;;2.00;;
45388;SDS011;31127;52.078;4.370;2023-07-31T21:54:37;6.95;;;2.90;;
45388;SDS011;31127;52.078;4.370;2023-07-31T21:59:32;9.00;;;3.00;;
45388;SDS011;31127;52.078;4.370;2023-07-31T22:04:30;4.45;;;2.40;;
45388;SDS011;31127;52.078;4.370;2023-07-31T22:09:26;4.40;;;2.60;;
45388;SDS011;31127;52.078;4.370;2023-07-31T22:14:41;6.75;;;2.53;;
